Time;durP1;ratioP1;P1;durP2;ratioP2;P2;SDS_P1;SDS_P2;PMS_P1;PMS_P2;Temp;Humidity;BMP_temperature;BMP_pressure;BME280_temperature;BME280_humidity;BME280_pressure;Samples;Min_cycle;Max_cycle;Signal;HPM_P1;HPM_P2
2021/04/01 00:00:11;;;;;;;55.88;28.15;;;12.50;69.10;;;;;;4960254;28;20501;-75
2021/04/01 00:02:37;;;;;;;54.03;26.60;;;12.50;69.70;;;;;;4962917;28;20019;-74
2021/04/01 00:05:05;;;;;;;52.72;26.30;;;12.40;70.10;;;;;;4958399;28;20038;-74
2021/04/01 00:07:31;;;;;;;58.08;28.40;;;12.30;70.30;;;;;;4962007;28;20558;-74
2021/04/01 00:09:57;;;;;;;59.63;28.58;;;12.30;70.50;;;;;;5042739;28;20048;-74
2021/04/01 00:12:22;;;;;;;59.08;28.63;;;12.30;71.10;;;;;;4992008;28;20083;-74
2021/04/01 00:14:49;;;;;;;60.08;28.25;;;12.30;71.30;;;;;;4954261;28;20027;-75
2021/04/01 00:17:15;;;;;;;60.13;28.50;;;12.20;71.80;;;;;;4954209;28;20023;-74
2021/04/01 00:19:40;;;;;;;60.72;29.58;;;12.20;72.40;;;;;;4968482;28;20034;-74
2021/04/01 00:22:06;;;;;;;58.90;28.23;;;12.20;72.70;;;;;;4969770;28;20051;-74
2021/04/01 00:24:32;;;;;;;59.22;29.55;;;12.20;73.10;;;;;;4962508;28;20102;-74
2021/04/01 00:26:58;;;;;;;57.58;28.00;;;12.20;73.30;;;;;;4954271;28;20093;-74
2021/04/01 00:29:23;;;;;;;57.38;28.23;;;12.20;73.80;;;;;;4966205;28;20058;-74
2021/04/01 00:31:49;;;;;;;54.45;27.13;;;12.20;74.00;;;;;;4964742;28;20118;-74
2021/04/01 00:34:14;;;;;;;60.65;29.20;;;12.20;74.00;;;;;;4960772;28;20031;-74
2021/04/01 00:36:40;;;;;;;54.83;26.67;;;12.30;74.10;;;;;;4952925;28;20397;-74
2021/04/01 00:39:06;;;;;;;60.53;30.25;;;12.30;74.10;;;;;;4953031;28;20032;-74
2021/04/01 00:41:32;;;;;;;58.70;29.63;;;12.40;74.10;;;;;;4953908;28;20454;-74
2021/04/01 00:44:02;;;;;;;65.03;31.45;;;12.40;74.20;;;;;;4953856;28;20113;-74
2021/04/01 00:46:28;;;;;;;67.15;33.13;;;12.40;73.90;;;;;;4968551;28;20085;-75
2021/04/01 00:48:53;;;;;;;62.90;32.53;;;12.40;73.40;;;;;;4962093;28;20035;-75
2021/04/01 00:51:19;;;;;;;61.47;30.67;;;12.40;73.20;;;;;;4954096;28;20040;-75
2021/04/01 00:53:44;;;;;;;60.83;30.20;;;12.40;73.30;;;;;;5002924;28;20020;-74
2021/04/01 00:56:10;;;;;;;61.45;31.58;;;12.50;73.40;;;;;;4964986;28;20061;-74
2021/04/01 00:58:36;;;;;;;64.32;31.52;;;12.40;73.40;;;;;;4953261;28;20027;-74
2021/04/01 01:03:48;;;;;;;59.75;28.75;;;12.50;73.70;;;;;;4984688;28;20117;-74
2021/04/01 01:06:13;;;;;;;59.08;29.75;;;12.50;73.90;;;;;;4972126;28;20524;-74
2021/04/01 01:08:39;;;;;;;56.20;27.83;;;12.40;74.00;;;;;;5021055;28;20051;-74
2021/04/01 01:11:04;;;;;;;56.60;27.63;;;12.40;74.40;;;;;;4966793;28;20055;-75
2021/04/01 01:13:30;;;;;;;59.80;29.70;;;12.40;74.90;;;;;;4957843;28;20035;-75
2021/04/01 01:15:56;;;;;;;55.15;26.55;;;12.30;75.80;;;;;;4958620;28;20096;-74
2021/04/01 01:18:21;;;;;;;63.33;29.70;;;12.30;75.50;;;;;;4962774;28;20038;-74
2021/04/01 01:20:47;;;;;;;58.20;29.42;;;12.20;75.60;;;;;;4964179;28;20074;-74
2021/04/01 01:23:13;;;;;;;58.17;31.30;;;12.20;75.90;;;;;;4957640;28;20138;-76
2021/04/01 01:25:38;;;;;;;63.00;30.67;;;12.10;75.90;;;;;;4962925;28;20034;-75
2021/04/01 01:28:05;;;;;;;57.75;27.80;;;12.20;76.10;;;;;;5005652;28;20758;-76
2021/04/01 01:30:33;;;;;;;53.20;28.98;;;12.10;76.50;;;;;;4955006;28;20031;-76
2021/04/01 01:33:03;;;;;;;57.17;28.02;;;12.10;76.80;;;;;;4963106;28;20037;-75
2021/04/01 01:35:37;;;;;;;54.75;29.10;;;12.10;77.00;;;;;;4953287;28;20517;-76
2021/04/01 01:38:07;;;;;;;59.13;28.17;;;12.00;77.20;;;;;;4957250;28;20046;-75
2021/04/01 01:40:35;;;;;;;58.50;29.10;;;12.00;77.30;;;;;;4963980;28;20108;-75
2021/04/01 01:43:03;;;;;;;63.50;30.08;;;11.90;77.30;;;;;;4955967;28;20023;-75
2021/04/01 01:45:30;;;;;;;63.80;30.90;;;11.90;77.20;;;;;;4965935;28;20062;-76
2021/04/01 01:47:56;;;;;;;66.40;30.83;;;11.90;77.10;;;;;;4971116;28;20017;-76
2021/04/01 01:50:25;;;;;;;64.45;31.90;;;12.00;77.10;;;;;;4974147;28;20481;-75
2021/04/01 01:52:50;;;;;;;63.55;31.17;;;12.00;77.00;;;;;;4968327;28;20042;-75
2021/04/01 01:55:16;;;;;;;62.25;31.08;;;12.00;76.90;;;;;;4973101;28;20027;-75
2021/04/01 01:57:41;;;;;;;73.90;34.05;;;12.00;77.10;;;;;;4966455;28;20031;-76
2021/04/01 02:00:14;;;;;;;64.72;31.98;;;12.00;77.20;;;;;;4952672;28;20031;-76
2021/04/01 02:02:49;;;;;;;67.18;32.75;;;12.00;77.30;;;;;;4954117;28;20030;-75
2021/04/01 02:05:15;;;;;;;65.00;32.03;;;12.00;77.30;;;;;;4986580;28;20023;-76
2021/04/01 02:07:40;;;;;;;62.72;31.23;;;12.00;77.30;;;;;;4955342;28;20035;-75
2021/04/01 02:10:07;;;;;;;70.72;34.00;;;12.00;77.40;;;;;;4971453;28;20114;-76
2021/04/01 02:12:32;;;;;;;67.22;34.58;;;12.00;78.00;;;;;;4968612;28;20057;-76
2021/04/01 02:14:58;;;;;;;68.40;32.72;;;12.00;77.60;;;;;;4955444;28;20020;-75
2021/04/01 02:17:25;;;;;;;65.97;32.72;;;12.00;77.50;;;;;;4956238;28;20036;-75
2021/04/01 02:19:57;;;;;;;64.47;32.38;;;12.00;77.70;;;;;;4966697;28;20055;-75
2021/04/01 02:22:23;;;;;;;73.95;35.20;;;12.00;77.90;;;;;;4972848;28;20032;-75
2021/04/01 02:24:49;;;;;;;64.82;33.13;;;12.00;78.10;;;;;;4955133;28;20490;-75
2021/04/01 02:27:14;;;;;;;68.20;34.38;;;11.90;78.20;;;;;;4960684;28;20502;-75
2021/04/01 02:29:40;;;;;;;69.90;33.13;;;11.90;78.20;;;;;;4969140;28;20038;-75
2021/04/01 02:32:06;;;;;;;69.68;35.05;;;11.90;78.20;;;;;;4967386;28;20129;-75
2021/04/01 02:34:31;;;;;;;71.97;33.15;;;11.90;78.40;;;;;;4973769;28;20031;-73
2021/04/01 02:36:57;;;;;;;68.15;34.67;;;11.90;78.30;;;;;;4971572;28;20042;-75
2021/04/01 02:39:22;;;;;;;75.90;36.35;;;11.90;78.30;;;;;;5003775;28;20352;-76
2021/04/01 02:41:48;;;;;;;78.95;37.53;;;12.00;78.30;;;;;;4953493;28;20042;-76
2021/04/01 02:44:13;;;;;;;76.85;37.72;;;12.00;78.20;;;;;;4968765;28;20031;-75
2021/04/01 02:46:39;;;;;;;69.65;34.47;;;12.00;78.00;;;;;;4962074;28;20073;-75
2021/04/01 02:49:04;;;;;;;76.90;36.65;;;12.00;78.00;;;;;;4953140;28;20023;-75
2021/04/01 02:51:30;;;;;;;73.43;36.35;;;11.90;78.00;;;;;;4959861;28;20415;-75
2021/04/01 02:53:55;;;;;;;69.13;35.05;;;11.90;78.00;;;;;;4961507;28;20067;-75
2021/04/01 02:56:21;;;;;;;66.90;34.60;;;11.90;77.90;;;;;;4964689;28;20031;-75
2021/04/01 02:58:46;;;;;;;75.05;35.72;;;11.80;77.80;;;;;;4966331;28;20037;-75
2021/04/01 03:01:12;;;;;;;77.93;35.55;;;11.80;77.60;;;;;;4963519;28;20055;-75
2021/04/01 03:03:46;;;;;;;72.10;34.97;;;11.80;77.20;;;;;;4956169;28;20031;-76
2021/04/01 03:06:12;;;;;;;75.00;34.80;;;11.90;77.00;;;;;;4967508;28;20026;-75
2021/04/01 03:08:37;;;;;;;79.28;34.58;;;12.00;76.70;;;;;;4953334;28;20023;-75
2021/04/01 03:11:03;;;;;;;72.07;34.70;;;12.00;76.90;;;;;;4954626;28;20059;-75
2021/04/01 03:13:29;;;;;;;72.63;34.97;;;12.10;75.90;;;;;;4960537;28;20047;-76
2021/04/01 03:15:55;;;;;;;70.15;33.85;;;12.10;75.60;;;;;;4966400;28;20027;-76
2021/04/01 03:18:21;;;;;;;68.05;34.67;;;12.10;75.40;;;;;;4963951;28;20035;-76
2021/04/01 03:20:47;;;;;;;76.55;34.58;;;12.10;75.50;;;;;;4956678;28;20035;-76
2021/04/01 03:23:13;;;;;;;70.88;34.28;;;12.10;75.50;;;;;;4951422;28;20085;-76
2021/04/01 03:25:39;;;;;;;71.60;33.33;;;12.10;75.50;;;;;;4952092;28;20471;-76
2021/04/01 03:28:05;;;;;;;73.00;33.13;;;12.10;75.30;;;;;;4950792;28;20027;-76
2021/04/01 03:30:31;;;;;;;70.78;32.20;;;12.10;75.10;;;;;;4956756;28;20039;-75
2021/04/01 03:32:57;;;;;;;72.75;32.63;;;12.00;75.00;;;;;;4962292;28;20041;-75
2021/04/01 03:35:23;;;;;;;65.80;31.80;;;12.00;75.10;;;;;;4963821;28;20059;-76
2021/04/01 03:37:56;;;;;;;68.55;33.40;;;12.00;75.10;;;;;;4953569;28;20027;-75
2021/04/01 03:40:23;;;;;;;62.95;31.13;;;11.90;75.00;;;;;;4956981;28;20460;-75
2021/04/01 03:42:49;;;;;;;68.40;32.50;;;11.90;75.20;;;;;;4950246;28;20027;-75
2021/04/01 03:45:15;;;;;;;65.32;32.60;;;11.90;75.20;;;;;;4961488;28;20548;-75
2021/04/01 03:47:42;;;;;;;65.75;32.03;;;11.80;75.20;;;;;;4955834;28;20088;-76
2021/04/01 03:50:10;;;;;;;66.10;32.08;;;11.80;75.30;;;;;;4960334;28;20084;-76
2021/04/01 03:52:37;;;;;;;69.35;32.80;;;11.70;75.40;;;;;;4951011;28;20039;-76
2021/04/01 03:55:16;;;;;;;65.80;32.10;;;11.70;75.80;;;;;;4951513;29;20462;-75
2021/04/01 03:57:43;;;;;;;71.70;33.33;;;11.50;76.20;;;;;;4955841;28;20027;-75
2021/04/01 04:00:20;;;;;;;71.32;33.67;;;11.40;76.60;;;;;;4967675;28;20400;-75
2021/04/01 04:05:38;;;;;;;69.13;34.58;;;11.20;77.50;;;;;;4969939;28;20548;-75
2021/04/01 04:08:31;;;;;;;71.72;35.55;;;11.10;77.90;;;;;;4953311;28;20074;-76
2021/04/01 04:16:03;;;;;;;68.90;31.60;;;10.70;78.60;;;;;;4963157;28;20114;-75
2021/04/01 04:18:28;;;;;;;73.97;35.13;;;10.70;78.80;;;;;;4958503;28;20109;-76
2021/04/01 04:20:54;;;;;;;70.70;33.60;;;10.60;79.20;;;;;;4954358;28;20499;-75
2021/04/01 04:23:20;;;;;;;73.43;33.97;;;10.50;79.50;;;;;;4953720;28;20061;-76
2021/04/01 04:25:46;;;;;;;75.70;34.08;;;10.50;79.70;;;;;;4956039;28;20034;-76
2021/04/01 04:28:30;;;;;;;67.13;32.60;;;10.40;79.90;;;;;;4963965;28;20483;-75
2021/04/01 04:30:56;;;;;;;80.15;35.47;;;10.40;80.00;;;;;;4960823;28;20027;-75
2021/04/01 04:33:21;;;;;;;68.95;33.25;;;10.40;80.10;;;;;;4959141;28;20039;-75
2021/04/01 04:35:47;;;;;;;66.50;33.33;;;10.40;80.10;;;;;;4961455;28;20503;-75
2021/04/01 04:38:12;;;;;;;65.35;33.10;;;10.40;80.10;;;;;;4955316;28;20497;-75
2021/04/01 04:40:38;;;;;;;61.90;30.05;;;10.30;80.20;;;;;;4953923;28;20038;-75
2021/04/01 04:43:04;;;;;;;65.22;32.42;;;10.30;80.50;;;;;;4954291;28;20031;-76
2021/04/01 04:45:29;;;;;;;68.10;31.98;;;10.20;80.70;;;;;;4955817;28;20031;-75
2021/04/01 04:47:55;;;;;;;68.63;32.30;;;10.20;80.90;;;;;;4955246;28;20154;-76
2021/04/01 04:50:20;;;;;;;65.70;31.00;;;10.10;81.10;;;;;;4970986;28;20168;-75
2021/04/01 04:52:46;;;;;;;62.28;30.08;;;10.00;81.30;;;;;;4971575;28;20054;-76
2021/04/01 04:55:12;;;;;;;68.60;31.70;;;10.00;81.60;;;;;;4958323;28;20392;-75
2021/04/01 05:05:25;;;;;;;63.70;29.05;;;10.10;81.60;;;;;;4968139;28;20157;-75
2021/04/01 05:07:50;;;;;;;60.92;29.70;;;10.10;81.60;;;;;;4960017;28;20478;-76
2021/04/01 05:10:16;;;;;;;60.97;28.67;;;10.10;81.70;;;;;;4954038;28;20050;-76
2021/04/01 05:12:41;;;;;;;60.75;28.38;;;10.10;81.80;;;;;;4954388;28;20047;-75
2021/04/01 05:15:08;;;;;;;60.08;27.90;;;10.10;81.90;;;;;;4961690;28;20031;-76
2021/04/01 05:17:33;;;;;;;61.58;28.77;;;10.10;81.90;;;;;;4953308;28;20030;-76
2021/04/01 05:20:03;;;;;;;65.35;29.83;;;10.00;81.70;;;;;;4966302;28;20027;-75
2021/04/01 05:22:37;;;;;;;61.28;30.27;;;10.00;81.80;;;;;;4956584;28;20390;-75
2021/04/01 05:25:05;;;;;;;59.63;28.52;;;9.90;82.10;;;;;;4955203;28;20451;-75
2021/04/01 05:27:42;;;;;;;69.35;31.63;;;9.80;82.50;;;;;;4961554;28;20033;-75
2021/04/01 05:30:08;;;;;;;56.53;28.35;;;9.70;82.90;;;;;;4980503;28;20021;-75
2021/04/01 05:32:37;;;;;;;65.93;31.20;;;9.70;83.20;;;;;;4966223;28;20035;-75
2021/04/01 05:35:05;;;;;;;59.97;29.13;;;9.70;83.30;;;;;;4963857;28;20076;-76
2021/04/01 05:37:31;;;;;;;59.95;28.83;;;9.70;83.30;;;;;;4958781;28;20034;-76
2021/04/01 05:39:57;;;;;;;65.43;30.55;;;9.70;83.50;;;;;;4953650;28;20026;-76
2021/04/01 05:42:25;;;;;;;64.30;29.55;;;9.60;83.60;;;;;;4955984;28;20085;-75
2021/04/01 05:45:00;;;;;;;68.43;30.08;;;9.60;83.80;;;;;;4952335;28;20015;-76
2021/04/01 05:53:13;;;;;;;58.92;27.95;;;9.70;83.90;;;;;;4964427;28;20046;-75
2021/04/01 05:58:33;;;;;;;51.85;26.10;;;9.90;83.40;;;;;;4964468;28;20539;-75
2021/04/01 06:01:28;;;;;;;62.08;28.10;;;10.00;83.00;;;;;;4968928;28;20048;-75
2021/04/01 06:04:04;;;;;;;55.80;26.98;;;10.10;82.70;;;;;;4957676;28;20031;-75
2021/04/01 06:06:49;;;;;;;48.22;24.58;;;10.20;82.70;;;;;;4966439;28;20030;-76
2021/04/01 06:09:20;;;;;;;52.05;25.55;;;10.30;82.50;;;;;;4962383;28;20019;-75
2021/04/01 06:11:55;;;;;;;55.85;26.77;;;10.40;82.20;;;;;;4956387;28;20047;-75
2021/04/01 06:14:52;;;;;;;59.00;27.98;;;10.50;82.00;;;;;;4953982;28;20195;-76
2021/04/01 06:17:19;;;;;;;52.85;25.88;;;10.50;81.80;;;;;;5007297;28;20491;-76
2021/04/01 06:19:48;;;;;;;57.92;26.48;;;10.60;81.70;;;;;;4988249;28;20041;-74
2021/04/01 06:22:15;;;;;;;50.40;25.40;;;10.70;81.50;;;;;;4954643;28;20102;-75
2021/04/01 06:24:44;;;;;;;49.80;24.83;;;10.80;81.20;;;;;;4958037;28;20439;-75
2021/04/01 06:27:17;;;;;;;56.00;25.10;;;10.80;80.90;;;;;;4959132;23;20075;-75
2021/04/01 06:32:32;;;;;;;61.45;29.00;;;11.00;80.40;;;;;;4952875;28;20042;-74
2021/04/01 06:35:08;;;;;;;59.58;26.92;;;11.10;79.90;;;;;;4971516;28;20054;-76
2021/04/01 06:40:04;;;;;;;68.18;29.40;;;11.40;79.10;;;;;;4971466;28;20034;-75
2021/04/01 06:42:33;;;;;;;69.40;30.35;;;11.50;78.70;;;;;;4970969;28;20034;-75
2021/04/01 06:45:05;;;;;;;72.03;30.40;;;11.60;78.50;;;;;;4971866;28;20034;-75
2021/04/01 06:47:33;;;;;;;73.30;31.75;;;11.70;78.20;;;;;;4969820;28;20117;-75
2021/04/01 06:50:17;;;;;;;65.88;29.10;;;11.90;78.20;;;;;;4971070;28;20038;-75
2021/04/01 06:52:50;;;;;;;70.32;31.65;;;12.00;78.10;;;;;;4967928;28;20061;-75
2021/04/01 06:55:25;;;;;;;67.45;31.50;;;12.10;77.90;;;;;;4970782;28;20444;-75
2021/04/01 07:00:48;;;;;;;84.63;34.05;;;12.40;77.50;;;;;;4963338;28;20043;-74
2021/04/01 07:05:49;;;;;;;82.63;34.75;;;12.50;77.40;;;;;;4970569;28;20038;-75
2021/04/01 07:08:18;;;;;;;84.85;37.08;;;12.60;77.40;;;;;;4964939;28;20120;-75
2021/04/01 07:13:36;;;;;;;83.00;37.53;;;12.70;77.00;;;;;;5419991;22;20195;-83
2021/04/01 07:16:46;;;;;;;101.75;41.15;;;12.80;77.00;;;;;;4985257;28;20025;-83
2021/04/01 07:46:29;;;;;;;108.32;48.15;;;13.20;76.00;;;;;;4975432;28;20035;-83
2021/04/01 07:49:03;;;;;;;102.10;45.95;;;13.20;76.40;;;;;;4971259;28;20053;-83
2021/04/01 07:51:57;;;;;;;107.32;46.80;;;13.30;76.70;;;;;;4974791;28;20035;-83
2021/04/01 07:54:36;;;;;;;98.60;44.38;;;13.30;76.80;;;;;;4989331;28;20042;-83
2021/04/01 07:57:31;;;;;;;113.32;50.67;;;13.40;77.30;;;;;;4970516;28;20027;-83
2021/04/01 08:00:09;;;;;;;99.78;46.88;;;13.40;76.00;;;;;;4989145;28;20030;-83
2021/04/01 08:05:23;;;;;;;117.25;49.47;;;13.40;76.40;;;;;;4974370;28;20045;-84
2021/04/01 08:07:57;;;;;;;122.63;53.60;;;13.40;76.70;;;;;;4976375;28;20076;-83
2021/04/01 08:10:27;;;;;;;113.35;52.22;;;13.50;76.70;;;;;;4972825;28;20027;-83
2021/04/01 08:13:03;;;;;;;120.75;53.10;;;13.50;76.50;;;;;;4988277;28;20047;-83
2021/04/01 08:15:35;;;;;;;120.57;55.13;;;13.60;76.60;;;;;;4990929;28;20019;-84
2021/04/01 08:18:16;;;;;;;120.80;55.17;;;13.60;76.50;;;;;;4968247;28;20046;-84
2021/04/01 08:20:44;;;;;;;127.32;57.42;;;13.60;76.50;;;;;;4971124;28;20031;-83
2021/04/01 08:25:47;;;;;;;115.53;54.20;;;13.70;76.40;;;;;;4975442;28;20027;-83
2021/04/01 08:33:35;;;;;;;116.18;53.75;;;14.00;75.90;;;;;;4978023;28;20035;-83
2021/04/01 08:36:01;;;;;;;119.78;54.55;;;14.10;75.20;;;;;;4974683;28;20497;-83
2021/04/01 08:38:28;;;;;;;115.53;54.17;;;14.20;74.90;;;;;;5024565;28;20391;-84
2021/04/01 08:40:54;;;;;;;128.93;60.42;;;14.30;74.80;;;;;;4992258;28;20029;-83
2021/04/01 08:43:45;;;;;;;126.70;57.03;;;14.40;74.20;;;;;;4976254;28;20393;-82
2021/04/01 08:46:36;;;;;;;119.10;54.85;;;14.40;73.80;;;;;;4969108;28;20038;-84
2021/04/01 08:49:24;;;;;;;115.88;55.75;;;14.50;73.10;;;;;;4982623;28;20038;-84
2021/04/01 08:52:20;;;;;;;114.80;52.58;;;14.70;71.30;;;;;;5007451;28;20483;-84
2021/04/01 08:55:02;;;;;;;109.15;54.22;;;14.80;70.40;;;;;;4974341;28;20034;-82
2021/04/01 08:57:40;;;;;;;104.40;52.08;;;14.90;69.60;;;;;;4976629;28;20025;-84
2021/04/01 09:00:16;;;;;;;105.90;52.03;;;15.00;69.60;;;;;;4973730;28;20030;-84
2021/04/01 09:02:52;;;;;;;105.72;52.47;;;15.00;69.00;;;;;;4975437;28;20023;-84
2021/04/01 09:05:20;;;;;;;114.72;54.00;;;15.00;69.00;;;;;;4974403;28;20034;-84
2021/04/01 09:07:53;;;;;;;113.78;52.22;;;15.10;68.60;;;;;;4974442;28;20055;-81
2021/04/01 09:12:52;;;;;;;117.03;56.95;;;15.30;67.60;;;;;;4975096;28;20042;-82
2021/04/01 09:15:39;;;;;;;102.85;52.20;;;15.30;67.60;;;;;;4995842;28;20043;-82
2021/04/01 09:18:05;;;;;;;102.10;51.15;;;15.40;67.70;;;;;;4973649;28;20076;-84
2021/04/01 09:20:31;;;;;;;115.88;56.20;;;15.40;67.00;;;;;;4970115;28;20062;-84
2021/04/01 09:23:05;;;;;;;115.47;55.65;;;15.50;67.80;;;;;;4973284;28;20031;-84
2021/04/01 09:25:39;;;;;;;119.80;57.95;;;15.50;67.90;;;;;;4954541;28;20034;-84
2021/04/01 09:28:10;;;;;;;109.88;55.00;;;15.60;68.40;;;;;;4972505;28;20041;-81
2021/04/01 09:30:36;;;;;;;109.30;56.40;;;15.60;67.60;;;;;;4971811;28;20062;-84
2021/04/01 09:33:09;;;;;;;110.78;55.03;;;15.60;67.30;;;;;;4972434;28;20444;-83
2021/04/01 09:35:35;;;;;;;115.05;58.42;;;15.60;67.10;;;;;;4973110;28;20100;-84
2021/04/01 09:38:03;;;;;;;107.95;53.65;;;15.60;67.70;;;;;;4980161;28;20031;-84
2021/04/01 09:40:31;;;;;;;113.95;57.80;;;15.70;66.90;;;;;;4973241;28;20034;-84
2021/04/01 09:43:19;;;;;;;108.55;55.42;;;15.80;66.40;;;;;;4973566;28;20027;-83
2021/04/01 09:45:47;;;;;;;107.88;56.08;;;15.80;66.80;;;;;;4989161;28;20538;-81
2021/04/01 09:48:15;;;;;;;108.43;56.75;;;15.80;66.50;;;;;;4974603;28;20030;-84
2021/04/01 09:50:43;;;;;;;116.63;58.70;;;15.80;66.00;;;;;;4973754;28;20084;-83
2021/04/01 09:53:18;;;;;;;112.90;58.15;;;15.70;66.10;;;;;;4973693;28;20043;-83
2021/04/01 09:55:46;;;;;;;107.95;58.25;;;15.70;66.70;;;;;;4974343;28;20133;-84
2021/04/01 09:58:36;;;;;;;112.03;60.42;;;15.70;66.50;;;;;;4974262;28;20031;-83
2021/04/01 10:01:11;;;;;;;111.60;58.40;;;15.80;66.60;;;;;;4970400;28;20026;-84
2021/04/01 10:03:48;;;;;;;104.78;56.08;;;15.80;65.80;;;;;;4990003;28;20034;-84
2021/04/01 10:06:50;;;;;;;118.78;61.85;;;15.90;65.50;;;;;;4974190;28;20038;-84
2021/04/01 10:09:29;;;;;;;110.82;58.25;;;16.00;64.80;;;;;;4993976;28;20037;-84
2021/04/01 10:12:05;;;;;;;111.63;59.63;;;15.90;65.50;;;;;;4984463;28;20078;-84
2021/04/01 10:14:32;;;;;;;110.38;59.30;;;15.80;65.60;;;;;;4973872;28;20495;-84
2021/04/01 10:17:00;;;;;;;105.70;57.80;;;15.90;66.30;;;;;;5010561;28;20505;-84
2021/04/01 10:19:41;;;;;;;100.60;55.72;;;15.90;66.10;;;;;;4973744;28;20038;-95
2021/04/01 10:22:25;;;;;;;98.53;54.22;;;15.80;66.80;;;;;;4964416;28;20019;-84
2021/04/01 10:25:22;;;;;;;100.45;53.53;;;15.90;66.80;;;;;;4985398;28;20031;-84
2021/04/01 10:30:23;;;;;;;104.32;51.08;;;15.80;65.50;;;;;;4975470;28;20042;-84
2021/04/01 10:32:53;;;;;;;85.80;47.42;;;15.80;65.40;;;;;;4972925;28;20490;-83
2021/04/01 10:35:24;;;;;;;84.18;46.95;;;15.80;65.10;;;;;;4972364;28;20034;-84
2021/04/01 10:37:52;;;;;;;84.82;43.70;;;15.90;65.50;;;;;;4972833;28;20033;-84
2021/04/01 10:40:20;;;;;;;79.72;42.65;;;15.90;65.20;;;;;;4956502;28;20027;-84
2021/04/01 10:43:01;;;;;;;78.70;41.75;;;16.10;64.90;;;;;;4970371;28;20027;-83
2021/04/01 10:45:34;;;;;;;77.85;41.35;;;16.20;64.40;;;;;;4974536;28;20027;-84
2021/04/01 10:48:18;;;;;;;77.35;41.15;;;16.30;62.50;;;;;;4976016;28;20023;-84
2021/04/01 10:50:44;;;;;;;78.13;40.85;;;16.40;62.40;;;;;;4963299;28;20463;-85
2021/04/01 10:53:24;;;;;;;67.80;35.30;;;16.40;62.00;;;;;;4972290;28;20039;-85
2021/04/01 10:55:52;;;;;;;63.72;32.78;;;16.50;61.80;;;;;;4972053;28;20019;-84
2021/04/01 10:58:18;;;;;;;58.90;30.88;;;16.70;61.90;;;;;;4972234;28;20085;-85
2021/04/01 11:00:58;;;;;;;55.22;29.50;;;16.80;61.30;;;;;;4968358;28;20035;-85
2021/04/01 11:03:36;;;;;;;48.50;26.75;;;16.80;60.50;;;;;;4953363;28;20019;-84
2021/04/01 11:06:04;;;;;;;49.72;24.83;;;16.80;60.90;;;;;;4955170;28;20486;-85
2021/04/01 11:08:39;;;;;;;42.00;22.00;;;16.70;60.70;;;;;;4961820;28;20535;-84
2021/04/01 11:11:06;;;;;;;41.50;21.95;;;16.80;61.60;;;;;;4974698;28;20038;-84
2021/04/01 11:13:41;;;;;;;42.63;21.30;;;16.80;61.10;;;;;;4978713;28;20047;-85
2021/04/01 11:16:08;;;;;;;45.38;19.73;;;16.90;60.00;;;;;;4974093;28;20073;-84
2021/04/01 11:18:37;;;;;;;39.45;17.75;;;16.80;59.90;;;;;;4972821;28;20030;-84
2021/04/01 11:21:05;;;;;;;41.42;19.38;;;16.90;60.00;;;;;;4974000;28;20057;-84
2021/04/01 11:23:31;;;;;;;35.80;19.55;;;16.90;60.00;;;;;;4973399;28;20022;-84
2021/04/01 11:25:59;;;;;;;29.77;14.57;;;17.00;59.10;;;;;;4968554;28;20027;-84
2021/04/01 11:28:49;;;;;;;25.65;12.30;;;17.00;57.90;;;;;;4969032;28;20036;-85
2021/04/01 11:31:26;;;;;;;25.73;13.15;;;17.00;57.90;;;;;;4954167;28;20070;-85
2021/04/01 11:33:53;;;;;;;26.85;12.20;;;17.10;58.30;;;;;;4953820;28;20106;-85
2021/04/01 11:36:21;;;;;;;29.52;13.88;;;17.10;57.10;;;;;;4970119;28;20019;-84
2021/04/01 11:38:52;;;;;;;22.25;11.00;;;17.20;56.70;;;;;;4968764;28;20118;-84
2021/04/01 11:41:21;;;;;;;20.65;9.40;;;17.20;56.80;;;;;;4971305;28;20081;-84
2021/04/01 11:43:56;;;;;;;17.98;7.00;;;17.30;57.00;;;;;;4978977;28;20512;-85
2021/04/01 11:46:28;;;;;;;20.42;5.88;;;17.40;56.60;;;;;;4987789;28;20062;-84
2021/04/01 11:48:55;;;;;;;12.65;4.97;;;17.50;55.90;;;;;;4985504;28;20027;-86
2021/04/01 11:51:35;;;;;;;15.68;3.97;;;17.50;56.00;;;;;;4982605;28;20129;-85
2021/04/01 11:54:02;;;;;;;10.20;3.40;;;17.60;55.50;;;;;;4980001;28;20036;-84
2021/04/01 11:59:16;;;;;;;8.48;3.05;;;17.70;55.40;;;;;;4938519;23;20056;-85
2021/04/01 12:01:49;;;;;;;8.65;2.97;;;17.80;55.50;;;;;;4907425;28;20047;-84
2021/04/01 12:04:17;;;;;;;12.38;3.30;;;17.80;55.10;;;;;;4916122;29;20032;-84
2021/04/01 12:06:43;;;;;;;7.25;2.42;;;17.80;54.70;;;;;;4913979;29;20020;-83
2021/04/01 12:09:09;;;;;;;9.85;2.50;;;17.90;55.10;;;;;;4913816;29;20135;-84
2021/04/01 12:11:40;;;;;;;8.43;2.10;;;17.90;55.20;;;;;;4913706;29;20039;-84
2021/04/01 12:14:09;;;;;;;9.90;2.38;;;17.90;55.10;;;;;;4898948;29;20075;-84
2021/04/01 12:16:35;;;;;;;8.23;2.00;;;17.90;56.20;;;;;;4914731;29;20025;-84
2021/04/01 12:19:00;;;;;;;10.00;1.70;;;17.90;55.90;;;;;;4921883;28;20044;-83
2021/04/01 12:21:26;;;;;;;9.90;1.95;;;17.90;56.10;;;;;;4912973;29;20056;-84
2021/04/01 12:23:55;;;;;;;6.78;2.17;;;17.70;57.00;;;;;;4912683;29;20365;-83
2021/04/01 12:26:21;;;;;;;7.93;1.42;;;17.70;56.50;;;;;;4915030;29;20075;-85
2021/04/01 12:29:00;;;;;;;7.90;1.52;;;17.70;57.10;;;;;;4916554;28;20032;-84
2021/04/01 12:31:34;;;;;;;4.85;1.02;;;17.70;57.10;;;;;;4930366;29;20119;-85
2021/04/01 12:33:59;;;;;;;10.70;2.38;;;17.70;55.90;;;;;;4914346;28;20116;-84
2021/04/01 12:36:36;;;;;;;7.53;1.50;;;17.60;56.00;;;;;;4917321;28;20063;-85
2021/04/01 12:39:03;;;;;;;14.02;2.17;;;17.60;56.10;;;;;;4917911;29;20130;-85
2021/04/01 12:41:34;;;;;;;7.90;1.25;;;17.50;55.90;;;;;;4930767;29;20025;-85
2021/04/01 12:43:59;;;;;;;6.57;1.00;;;17.60;56.60;;;;;;4913363;29;20028;-85
2021/04/01 12:46:43;;;;;;;10.00;1.38;;;17.70;56.20;;;;;;4917920;28;20032;-85
2021/04/01 12:49:16;;;;;;;6.85;0.98;;;17.60;57.00;;;;;;4919756;29;20028;-85
2021/04/01 12:51:44;;;;;;;11.98;1.55;;;17.60;58.00;;;;;;4919789;29;20064;-85
2021/04/01 12:54:12;;;;;;;7.90;1.33;;;17.50;58.40;;;;;;4918018;29;20043;-85
2021/04/01 12:56:44;;;;;;;9.27;1.33;;;17.40;58.30;;;;;;4918035;29;20028;-85
2021/04/01 12:59:14;;;;;;;9.48;1.20;;;17.30;59.30;;;;;;4919855;28;20076;-85
2021/04/01 13:01:53;;;;;;;9.57;0.98;;;17.20;59.10;;;;;;4918450;28;20035;-85
2021/04/01 13:04:20;;;;;;;8.55;1.13;;;17.20;58.70;;;;;;4919528;29;20035;-84
2021/04/01 13:11:48;;;;;;;11.30;1.30;;;17.10;58.50;;;;;;4918844;29;20040;-86
2021/04/01 13:14:14;;;;;;;8.93;0.88;;;17.20;58.70;;;;;;4915981;29;20223;-85
2021/04/01 13:16:40;;;;;;;6.28;0.80;;;17.30;59.10;;;;;;4918476;29;20115;-85
2021/04/01 13:19:06;;;;;;;6.80;1.17;;;17.40;58.70;;;;;;4917254;29;20431;-85
2021/04/01 13:24:20;;;;;;;9.60;1.13;;;17.40;58.90;;;;;;4912475;28;20024;-85
2021/04/01 13:26:46;;;;;;;9.27;1.10;;;17.40;58.50;;;;;;4918982;29;20024;-85
2021/04/01 13:29:13;;;;;;;5.93;0.95;;;17.30;58.00;;;;;;4914477;29;20039;-86
2021/04/01 13:34:19;;;;;;;6.78;0.90;;;17.30;58.20;;;;;;4919017;29;20016;-85
2021/04/01 13:39:51;;;;;;;8.10;0.75;;;17.40;58.10;;;;;;4935463;28;20267;-86
2021/04/01 13:42:29;;;;;;;5.10;0.70;;;17.40;57.80;;;;;;4914429;29;20079;-86
2021/04/01 13:45:16;;;;;;;5.18;0.57;;;17.30;57.70;;;;;;4912604;28;20028;-86
2021/04/01 13:47:43;;;;;;;5.35;0.65;;;17.30;56.80;;;;;;4913359;28;20475;-85
2021/04/01 13:50:13;;;;;;;5.07;0.70;;;17.20;56.90;;;;;;4915372;29;20040;-85
2021/04/01 13:55:40;;;;;;;3.80;0.50;;;17.10;57.60;;;;;;4915808;28;20043;-85
2021/04/01 14:03:57;;;;;;;6.18;0.60;;;17.10;57.00;;;;;;4915843;29;20043;-85
2021/04/01 14:09:29;;;;;;;2.35;0.40;;;17.10;55.70;;;;;;4916197;28;20067;-91
2021/04/01 14:11:57;;;;;;;3.67;0.85;;;16.90;56.60;;;;;;4914637;29;20029;-86
2021/04/01 14:14:23;;;;;;;4.78;0.60;;;16.90;57.30;;;;;;4914595;29;20060;-85
2021/04/01 14:16:52;;;;;;;6.22;0.60;;;17.00;56.20;;;;;;4950580;28;20018;-85
2021/04/01 14:19:20;;;;;;;3.65;0.50;;;17.00;56.50;;;;;;4928750;28;20090;-85
2021/04/01 14:21:49;;;;;;;5.57;0.98;;;17.00;56.50;;;;;;4915768;29;20083;-85
2021/04/01 14:24:22;;;;;;;4.50;0.60;;;17.00;57.10;;;;;;4912902;28;20024;-85
2021/04/01 14:29:40;;;;;;;4.40;0.77;;;17.00;56.10;;;;;;4909588;29;20090;-85
2021/04/01 14:32:08;;;;;;;8.05;0.70;;;17.00;56.80;;;;;;4915906;28;20048;-84
2021/04/01 14:34:37;;;;;;;4.80;0.60;;;16.80;55.70;;;;;;4917445;29;20032;-85
2021/04/01 14:37:03;;;;;;;7.93;0.70;;;16.80;55.80;;;;;;4917883;29;20020;-85